createdAt,value
2023-05-05T00:00:03.298Z,5.60
2023-05-05T00:02:31.060Z,10.68
2023-05-05T00:04:58.828Z,10.73
2023-05-05T00:07:26.300Z,10.50
2023-05-05T00:09:53.807Z,15.52
2023-05-05T00:12:21.373Z,11.27
2023-05-05T00:14:48.850Z,12.85
2023-05-05T00:17:17.202Z,11.98
2023-05-05T00:19:44.823Z,14.13
2023-05-05T00:22:12.344Z,14.82
2023-05-05T00:24:39.893Z,11.52
2023-05-05T00:27:07.468Z,15.43
2023-05-05T00:29:35.022Z,11.45
2023-05-05T00:32:02.955Z,13.82
2023-05-05T00:34:30.399Z,17.23
2023-05-05T00:36:57.972Z,14.45
2023-05-05T00:39:25.477Z,14.32
2023-05-05T00:41:52.992Z,14.52
2023-05-05T00:44:37.977Z,14.35
2023-05-05T00:47:05.915Z,15.93
2023-05-05T00:49:34.699Z,14.25
2023-05-05T00:52:03.035Z,15.02
2023-05-05T00:54:30.759Z,13.60
2023-05-05T00:56:58.255Z,14.13
2023-05-05T00:59:25.916Z,9.82
2023-05-05T01:01:53.444Z,11.32
2023-05-05T01:04:20.999Z,10.10
2023-05-05T01:07:02.161Z,9.95
2023-05-05T01:10:07.235Z,11.68
2023-05-05T01:13:14.962Z,10.80
2023-05-05T01:15:51.569Z,11.85
2023-05-05T01:18:33.672Z,11.65
2023-05-05T01:21:10.157Z,9.20
2023-05-05T01:23:56.284Z,7.18
2023-05-05T01:26:48.138Z,7.47
2023-05-05T01:29:43.204Z,9.98
2023-05-05T01:32:23.247Z,10.07
2023-05-05T01:35:22.016Z,8.77
2023-05-05T01:38:01.705Z,7.15
2023-05-05T01:40:34.764Z,10.32
2023-05-05T01:43:03.700Z,7.80
2023-05-05T01:45:34.665Z,7.05
2023-05-05T01:48:03.982Z,7.15
2023-05-05T01:50:32.931Z,5.97
2023-05-05T01:53:02.315Z,6.53
2023-05-05T01:55:31.897Z,5.25
2023-05-05T01:58:01.649Z,8.32
2023-05-05T02:00:30.433Z,7.13
2023-05-05T02:02:59.824Z,6.53
2023-05-05T02:05:28.048Z,7.88
2023-05-05T02:07:59.123Z,6.70
2023-05-05T02:10:27.664Z,7.80
2023-05-05T02:12:55.295Z,7.13
2023-05-05T02:15:24.604Z,5.68
2023-05-05T02:17:53.068Z,8.15
2023-05-05T02:20:21.548Z,8.35
2023-05-05T02:22:49.747Z,8.07
2023-05-05T02:25:18.016Z,6.95
2023-05-05T02:27:49.164Z,7.07
2023-05-05T02:30:20.733Z,6.32
2023-05-05T02:32:57.306Z,9.02
2023-05-05T02:35:29.779Z,6.35
2023-05-05T02:38:04.791Z,10.30
2023-05-05T02:40:35.720Z,6.93
2023-05-05T02:43:07.780Z,7.93
2023-05-05T02:45:35.429Z,7.85
2023-05-05T02:48:04.950Z,6.75
2023-05-05T02:50:33.448Z,9.68
2023-05-05T02:53:01.622Z,7.53
2023-05-05T02:55:38.320Z,8.05
2023-05-05T02:58:14.651Z,7.03
2023-05-05T03:00:53.807Z,10.13
2023-05-05T03:03:53.952Z,5.50
2023-05-05T03:06:23.761Z,7.90
2023-05-05T03:08:57.111Z,10.32
2023-05-05T03:11:32.913Z,6.22
2023-05-05T03:14:08.674Z,7.18
2023-05-05T03:16:37.872Z,8.85
2023-05-05T03:19:07.888Z,6.88
2023-05-05T03:21:35.589Z,9.30
2023-05-05T03:24:15.604Z,7.00
2023-05-05T03:26:43.714Z,10.88
2023-05-05T03:29:11.352Z,5.32
2023-05-05T03:31:38.910Z,6.22
2023-05-05T03:34:07.396Z,3.33
2023-05-05T03:36:35.975Z,4.72
2023-05-05T03:39:03.773Z,4.88
2023-05-05T03:41:31.337Z,5.40
2023-05-05T03:43:58.816Z,6.07
2023-05-05T03:46:26.624Z,10.43
2023-05-05T03:48:57.135Z,5.28
2023-05-05T03:51:25.502Z,11.65
2023-05-05T03:53:52.998Z,8.40
2023-05-05T03:56:20.562Z,9.95
2023-05-05T03:58:48.088Z,4.28
2023-05-05T04:01:15.650Z,7.20
2023-05-05T04:03:43.236Z,8.13
2023-05-05T04:06:10.876Z,7.45
2023-05-05T04:08:38.402Z,10.90
2023-05-05T04:11:06.082Z,9.90
2023-05-05T04:13:33.575Z,11.00
2023-05-05T04:16:01.144Z,6.38
2023-05-05T04:18:28.693Z,8.88
2023-05-05T04:20:56.320Z,12.20
2023-05-05T04:23:23.935Z,10.90
2023-05-05T04:25:51.448Z,8.02
2023-05-05T04:28:20.320Z,16.60
2023-05-05T04:30:49.316Z,10.77
2023-05-05T04:33:16.830Z,11.13
2023-05-05T04:35:44.288Z,16.30
2023-05-05T04:38:11.797Z,16.42
2023-05-05T04:40:41.206Z,12.40
2023-05-05T04:43:08.741Z,12.52
2023-05-05T04:45:36.292Z,12.10
2023-05-05T04:48:05.131Z,21.10
2023-05-05T04:50:33.159Z,14.35
2023-05-05T04:53:00.711Z,20.83
2023-05-05T04:55:28.553Z,14.85
2023-05-05T04:57:56.441Z,16.40
2023-05-05T05:00:24.036Z,18.35
2023-05-05T05:02:52.560Z,17.25
2023-05-05T05:05:20.201Z,17.20
2023-05-05T05:07:47.731Z,18.40
2023-05-05T05:10:15.724Z,18.95
2023-05-05T05:12:43.338Z,18.25
2023-05-05T05:15:11.325Z,18.52
2023-05-05T05:17:38.852Z,17.83
2023-05-05T05:20:08.328Z,20.25
2023-05-05T05:22:38.282Z,20.33
2023-05-05T05:25:06.094Z,18.15
2023-05-05T05:27:33.659Z,23.95
2023-05-05T05:30:01.175Z,19.92
2023-05-05T05:32:28.736Z,18.90
2023-05-05T05:34:56.293Z,18.77
2023-05-05T05:37:23.739Z,20.92
2023-05-05T05:39:54.459Z,17.40
2023-05-05T05:42:22.064Z,19.38
2023-05-05T05:44:49.576Z,23.13
2023-05-05T05:47:17.022Z,21.92
2023-05-05T05:49:44.580Z,20.52
2023-05-05T05:52:12.135Z,25.13
2023-05-05T05:54:39.735Z,22.33
2023-05-05T05:57:07.321Z,18.05
2023-05-05T05:59:34.986Z,17.23
2023-05-05T06:02:03.318Z,24.75
2023-05-05T06:04:31.703Z,22.88
2023-05-05T06:06:59.349Z,18.30
2023-05-05T06:09:26.954Z,21.27
2023-05-05T06:11:54.566Z,21.45
2023-05-05T06:14:22.081Z,23.52
2023-05-05T06:16:49.592Z,20.10
2023-05-05T06:19:17.079Z,17.90
2023-05-05T06:21:44.631Z,21.83
2023-05-05T06:24:12.227Z,22.50
2023-05-05T06:26:39.877Z,22.05
2023-05-05T06:29:07.575Z,19.90
2023-05-05T06:31:35.109Z,19.50
2023-05-05T06:34:02.892Z,19.23
2023-05-05T06:36:30.399Z,17.63
2023-05-05T06:38:57.909Z,18.10
2023-05-05T06:41:25.482Z,18.75
2023-05-05T06:43:53.054Z,14.50
2023-05-05T06:46:20.632Z,16.42
2023-05-05T06:48:48.286Z,17.25
2023-05-05T06:51:16.187Z,17.33
2023-05-05T06:53:43.709Z,15.95
2023-05-05T06:56:11.398Z,13.75
2023-05-05T06:58:39.001Z,12.50
2023-05-05T07:01:07.028Z,15.73
2023-05-05T07:03:34.571Z,10.45
2023-05-05T07:06:02.231Z,12.40
2023-05-05T07:08:29.706Z,15.60
2023-05-05T07:10:57.248Z,14.48
2023-05-05T07:13:24.746Z,14.10
2023-05-05T07:15:52.333Z,9.82
2023-05-05T07:18:20.477Z,10.80
2023-05-05T07:20:48.534Z,10.27
2023-05-05T07:23:16.217Z,13.02
2023-05-05T07:25:43.980Z,12.00
2023-05-05T07:28:11.954Z,10.35
2023-05-05T07:30:39.458Z,12.10
2023-05-05T07:33:07.062Z,8.70
2023-05-05T07:35:34.669Z,10.05
2023-05-05T07:38:02.194Z,9.05
2023-05-05T07:40:29.740Z,9.35
2023-05-05T07:42:57.234Z,7.85
2023-05-05T07:45:24.740Z,7.75
2023-05-05T07:47:52.317Z,8.43
2023-05-05T07:50:20.526Z,10.88
2023-05-05T07:52:56.164Z,8.90
2023-05-05T07:55:29.824Z,5.75
2023-05-05T07:57:57.308Z,7.18
2023-05-05T08:00:24.875Z,9.90
2023-05-05T08:02:52.477Z,8.45
2023-05-05T08:05:20.127Z,9.68
2023-05-05T08:07:47.857Z,11.68
2023-05-05T08:10:15.398Z,15.85
2023-05-05T08:12:42.945Z,9.57
2023-05-05T08:15:11.652Z,7.88
2023-05-05T08:17:50.830Z,12.02
2023-05-05T08:20:19.579Z,7.55
2023-05-05T08:22:47.587Z,6.80
2023-05-05T08:25:15.557Z,8.52
2023-05-05T08:27:43.603Z,9.85
2023-05-05T08:30:11.901Z,9.63
2023-05-05T08:32:39.729Z,9.23
2023-05-05T08:35:08.315Z,4.82
2023-05-05T08:37:36.107Z,7.43
2023-05-05T08:40:03.700Z,9.55
2023-05-05T08:42:38.193Z,5.43
2023-05-05T08:45:08.787Z,4.88
2023-05-05T08:47:37.700Z,6.88
2023-05-05T08:50:06.675Z,7.53
2023-05-05T08:52:46.187Z,9.13
2023-05-05T08:55:25.466Z,7.72
2023-05-05T08:57:55.984Z,6.45
2023-05-05T09:00:24.580Z,6.72
2023-05-05T09:02:52.860Z,7.43
2023-05-05T09:05:20.610Z,6.45
2023-05-05T09:07:48.924Z,7.28
2023-05-05T09:10:16.558Z,5.05
2023-05-05T09:12:44.357Z,8.68
2023-05-05T09:15:16.323Z,7.72
2023-05-05T09:20:13.312Z,6.90
2023-05-05T09:22:41.731Z,6.75
2023-05-05T09:25:19.364Z,5.80
2023-05-05T09:27:49.327Z,6.80
2023-05-05T09:30:19.070Z,4.13
2023-05-05T09:32:54.842Z,4.55
2023-05-05T09:35:23.680Z,7.18
2023-05-05T09:37:51.289Z,14.98
2023-05-05T09:40:20.539Z,6.88
2023-05-05T09:42:48.871Z,8.10
2023-05-05T09:45:19.228Z,8.13
2023-05-05T09:47:48.064Z,7.68
2023-05-05T09:50:18.673Z,8.50
2023-05-05T09:53:03.094Z,6.28
2023-05-05T09:55:32.013Z,4.47
2023-05-05T09:58:18.535Z,6.22
2023-05-05T10:00:46.563Z,2.53
2023-05-05T10:03:14.360Z,7.05
2023-05-05T10:05:59.564Z,8.68
2023-05-05T10:08:31.455Z,3.47
2023-05-05T10:11:06.378Z,6.65
2023-05-05T10:13:38.459Z,4.22
2023-05-05T10:16:09.856Z,5.13
2023-05-05T10:18:40.048Z,5.47
2023-05-05T10:21:08.935Z,4.10
2023-05-05T10:23:45.000Z,4.82
2023-05-05T10:26:14.841Z,2.92
2023-05-05T10:28:46.826Z,6.03
2023-05-05T10:31:47.208Z,6.28
2023-05-05T10:34:24.815Z,7.75
2023-05-05T10:36:53.624Z,6.30
2023-05-05T10:39:22.084Z,8.38
2023-05-05T10:41:50.972Z,5.63
2023-05-05T10:44:19.094Z,8.50
2023-05-05T10:46:47.742Z,5.07
2023-05-05T10:49:23.498Z,4.70
2023-05-05T10:52:01.634Z,8.23
2023-05-05T10:54:46.632Z,8.23
2023-05-05T10:57:17.567Z,8.30
2023-05-05T10:59:45.268Z,7.50
2023-05-05T11:02:24.921Z,8.05
2023-05-05T11:05:08.194Z,6.50
2023-05-05T11:07:35.997Z,10.77
2023-05-05T11:10:06.347Z,6.88
2023-05-05T11:12:54.702Z,7.22
2023-05-05T11:15:25.009Z,11.30
2023-05-05T11:17:53.456Z,9.93
2023-05-05T11:20:36.265Z,8.95
2023-05-05T11:23:03.717Z,7.97
2023-05-05T11:25:38.135Z,10.80
2023-05-05T11:28:12.992Z,18.17
2023-05-05T11:31:10.012Z,9.80
2023-05-05T11:33:40.713Z,9.65
2023-05-05T11:36:10.397Z,15.10
2023-05-05T11:38:49.728Z,11.65
2023-05-05T11:41:32.209Z,13.93
2023-05-05T11:44:21.910Z,10.05
2023-05-05T11:46:52.555Z,13.80
2023-05-05T11:49:34.037Z,11.05
2023-05-05T11:52:02.633Z,11.67
2023-05-05T11:54:31.533Z,9.18
2023-05-05T11:57:01.974Z,9.48
2023-05-05T11:59:29.536Z,19.92
2023-05-05T12:01:57.132Z,10.55
2023-05-05T12:04:24.850Z,10.13
2023-05-05T12:06:52.464Z,11.23
2023-05-05T12:09:22.225Z,16.23
2023-05-05T12:11:53.634Z,17.73
2023-05-05T12:14:22.119Z,9.63
2023-05-05T12:16:56.461Z,13.00
2023-05-05T12:19:24.334Z,14.02
2023-05-05T12:21:54.174Z,10.50
2023-05-05T12:24:21.906Z,14.98
2023-05-05T12:26:49.419Z,13.23
2023-05-05T12:29:30.635Z,14.48
2023-05-05T12:32:00.211Z,11.35
2023-05-05T12:34:27.869Z,16.25
2023-05-05T12:36:55.687Z,15.02
2023-05-05T12:39:23.160Z,9.98
2023-05-05T12:41:50.978Z,9.82
2023-05-05T12:44:18.550Z,8.07
2023-05-05T12:46:47.426Z,8.27
2023-05-05T12:49:15.567Z,6.30
2023-05-05T12:51:57.206Z,9.27
2023-05-05T12:54:25.119Z,10.23
2023-05-05T12:56:52.641Z,7.78
2023-05-05T12:59:23.117Z,11.95
2023-05-05T13:01:55.543Z,11.00
2023-05-05T13:04:24.923Z,23.02
2023-05-05T13:07:12.355Z,10.48
2023-05-05T13:09:40.084Z,9.07
2023-05-05T13:12:11.596Z,7.53
2023-05-05T13:14:39.885Z,7.35
2023-05-05T13:17:07.811Z,7.15
2023-05-05T13:19:41.618Z,7.05
2023-05-05T13:22:10.999Z,11.32
2023-05-05T13:24:50.936Z,6.97
2023-05-05T13:27:20.528Z,5.13
2023-05-05T13:29:48.451Z,7.18
2023-05-05T13:32:15.949Z,5.43
2023-05-05T13:37:13.723Z,5.72
2023-05-05T13:39:41.317Z,8.43
2023-05-05T13:42:08.886Z,12.00
2023-05-05T13:44:36.388Z,7.10
2023-05-05T13:47:04.095Z,7.63
2023-05-05T13:49:31.733Z,7.32
2023-05-05T13:51:59.309Z,3.50
2023-05-05T13:54:27.014Z,3.05
2023-05-05T13:56:54.719Z,3.25
2023-05-05T13:59:22.289Z,4.65
2023-05-05T14:01:50.093Z,4.38
2023-05-05T14:04:17.657Z,2.65
2023-05-05T14:06:45.216Z,2.17
2023-05-05T14:09:13.186Z,2.75
2023-05-05T14:11:41.134Z,3.05
2023-05-05T14:14:08.703Z,10.50
2023-05-05T14:16:36.307Z,2.47
2023-05-05T14:19:04.081Z,4.85
2023-05-05T14:21:32.700Z,3.15
2023-05-05T14:24:00.199Z,1.70
2023-05-05T14:26:28.153Z,0.90
2023-05-05T14:28:55.800Z,3.00
2023-05-05T14:31:23.472Z,2.72
2023-05-05T14:33:51.037Z,2.83
2023-05-05T14:36:18.584Z,2.25
2023-05-05T14:38:46.200Z,4.22
2023-05-05T14:41:13.765Z,1.02
2023-05-05T14:43:41.339Z,0.80
2023-05-05T14:46:08.927Z,1.45
2023-05-05T14:48:36.616Z,2.05
2023-05-05T14:51:04.757Z,1.35
2023-05-05T14:53:32.490Z,4.55
2023-05-05T14:55:59.984Z,1.30
2023-05-05T14:58:27.538Z,2.80
2023-05-05T15:00:55.075Z,1.70
2023-05-05T15:03:22.736Z,2.25
2023-05-05T15:05:50.396Z,4.97
2023-05-05T15:08:19.144Z,2.25
2023-05-05T15:10:47.450Z,2.22
2023-05-05T15:13:15.342Z,3.47
2023-05-05T15:15:42.977Z,3.60
2023-05-05T15:18:10.510Z,1.70
2023-05-05T15:20:38.196Z,1.27
2023-05-05T15:23:05.754Z,5.40
2023-05-05T15:25:33.275Z,4.03
2023-05-05T15:28:00.974Z,2.45
2023-05-05T15:30:28.708Z,1.55
2023-05-05T15:32:56.429Z,2.45
2023-05-05T15:35:25.433Z,2.80
2023-05-05T15:37:54.538Z,0.90
2023-05-05T15:40:22.199Z,2.85
2023-05-05T15:42:49.829Z,1.55
2023-05-05T15:45:18.086Z,1.90
2023-05-05T15:47:45.942Z,1.92
2023-05-05T15:50:14.055Z,5.07
2023-05-05T15:52:41.643Z,4.32
2023-05-05T15:55:11.218Z,3.75
2023-05-05T15:57:40.415Z,2.60
2023-05-05T16:00:09.529Z,1.67
2023-05-05T16:02:37.149Z,1.88
2023-05-05T16:05:04.895Z,1.90
2023-05-05T16:07:32.574Z,0.85
2023-05-05T16:10:00.121Z,1.13
2023-05-05T16:12:27.814Z,0.95
2023-05-05T16:14:55.672Z,1.10
2023-05-05T16:17:23.485Z,0.98
2023-05-05T16:19:51.089Z,1.80
2023-05-05T16:22:18.718Z,1.52
2023-05-05T16:24:46.919Z,1.25
2023-05-05T16:27:15.127Z,0.40
2023-05-05T16:29:42.752Z,2.60
2023-05-05T16:32:10.306Z,2.45
2023-05-05T16:34:37.908Z,3.15
2023-05-05T16:37:05.414Z,2.28
2023-05-05T16:39:34.008Z,1.33
2023-05-05T16:42:02.799Z,1.88
2023-05-05T16:44:30.585Z,1.35
2023-05-05T16:46:58.309Z,0.75
2023-05-05T16:49:26.029Z,1.38
2023-05-05T16:51:53.607Z,1.75
2023-05-05T16:54:21.218Z,1.45
2023-05-05T16:56:48.884Z,3.25
2023-05-05T16:59:18.320Z,1.52
2023-05-05T17:01:46.800Z,4.22
2023-05-05T17:04:14.562Z,1.58
2023-05-05T17:06:42.086Z,1.73
2023-05-05T17:09:09.843Z,2.22
2023-05-05T17:11:37.368Z,2.63
2023-05-05T17:14:04.980Z,2.20
2023-05-05T17:16:32.707Z,4.63
2023-05-05T17:19:00.555Z,2.53
2023-05-05T17:21:28.041Z,2.30
2023-05-05T17:23:55.610Z,2.53
2023-05-05T17:26:23.129Z,2.47
2023-05-05T17:28:50.657Z,1.73
2023-05-05T17:31:18.243Z,2.92
2023-05-05T17:33:45.791Z,1.95
2023-05-05T17:36:13.384Z,3.08
2023-05-05T17:38:40.866Z,3.38
2023-05-05T17:41:08.482Z,3.60
2023-05-05T17:43:35.995Z,5.40
2023-05-05T17:46:03.556Z,2.38
2023-05-05T17:48:31.090Z,3.08
2023-05-05T17:50:58.647Z,3.60
2023-05-05T17:53:26.402Z,4.95
2023-05-05T17:55:54.473Z,3.35
2023-05-05T17:58:22.025Z,2.10
2023-05-05T18:00:49.623Z,2.50
2023-05-05T18:03:17.276Z,4.50
2023-05-05T18:05:44.964Z,3.15
2023-05-05T18:08:12.647Z,4.68
2023-05-05T18:10:40.135Z,3.90
2023-05-05T18:13:07.880Z,3.85
2023-05-05T18:15:35.703Z,4.15
2023-05-05T18:18:03.290Z,3.88
2023-05-05T18:20:30.882Z,2.75
2023-05-05T18:22:58.395Z,2.17
2023-05-05T18:25:26.222Z,5.50
2023-05-05T18:27:53.703Z,2.47
2023-05-05T18:30:21.309Z,2.40
2023-05-05T18:32:48.985Z,2.40
2023-05-05T18:35:16.641Z,4.00
2023-05-05T18:37:44.184Z,3.35
2023-05-05T18:40:12.141Z,3.03
2023-05-05T18:42:39.618Z,3.17
2023-05-05T18:45:07.896Z,3.25
2023-05-05T18:47:38.322Z,5.43
2023-05-05T18:50:07.139Z,4.25
2023-05-05T18:52:35.053Z,5.38
2023-05-05T18:55:02.600Z,3.17
2023-05-05T18:57:30.387Z,7.68
2023-05-05T18:59:57.910Z,3.55
2023-05-05T19:02:25.492Z,3.45
2023-05-05T19:04:53.078Z,4.38
2023-05-05T19:07:33.712Z,7.38
2023-05-05T19:10:02.717Z,3.42
2023-05-05T19:12:30.220Z,6.80
2023-05-05T19:14:57.747Z,7.15
2023-05-05T19:17:25.537Z,8.88
2023-05-05T19:19:53.122Z,6.25
2023-05-05T19:22:21.827Z,5.95
2023-05-05T19:24:49.588Z,7.15
2023-05-05T19:27:17.388Z,6.55
2023-05-05T19:29:45.207Z,5.70
2023-05-05T19:32:12.979Z,4.43
2023-05-05T19:34:42.261Z,4.60
2023-05-05T19:37:09.865Z,5.97
2023-05-05T19:39:37.652Z,6.25
2023-05-05T19:42:05.366Z,7.82
2023-05-05T19:44:32.870Z,4.35
2023-05-05T19:47:00.408Z,7.28
2023-05-05T19:49:27.933Z,4.57
2023-05-05T19:51:56.906Z,7.20
2023-05-05T19:54:24.669Z,8.93
2023-05-05T19:56:53.708Z,6.72
2023-05-05T19:59:22.073Z,9.77
2023-05-05T20:01:49.827Z,5.07
2023-05-05T20:04:17.428Z,7.68
2023-05-05T20:06:44.973Z,8.38
2023-05-05T20:09:12.464Z,9.13
2023-05-05T20:11:39.969Z,6.72
2023-05-05T20:14:07.524Z,6.03
2023-05-05T20:16:35.044Z,5.68
2023-05-05T20:19:02.903Z,6.20
2023-05-05T20:21:31.036Z,7.32
2023-05-05T20:23:59.629Z,4.50
2023-05-05T20:26:27.230Z,5.18
2023-05-05T20:28:54.686Z,7.05
2023-05-05T20:31:22.250Z,6.38
2023-05-05T20:33:49.791Z,6.68
2023-05-05T20:36:18.889Z,5.90
2023-05-05T20:38:46.357Z,5.63
2023-05-05T20:41:13.822Z,11.93
2023-05-05T20:43:41.340Z,7.80
2023-05-05T20:46:13.043Z,6.95
2023-05-05T20:48:42.884Z,4.20
2023-05-05T20:51:10.687Z,8.45
2023-05-05T20:53:38.185Z,5.38
2023-05-05T20:56:07.978Z,4.53
2023-05-05T20:58:36.293Z,7.72
2023-05-05T21:01:03.920Z,5.53
2023-05-05T21:03:31.627Z,11.07
2023-05-05T21:05:59.104Z,8.40
2023-05-05T21:08:26.848Z,6.32
2023-05-05T21:10:54.382Z,8.10
2023-05-05T21:13:21.919Z,8.57
2023-05-05T21:15:50.534Z,6.50
2023-05-05T21:18:18.112Z,8.80
2023-05-05T21:20:45.651Z,9.00
2023-05-05T21:23:13.231Z,7.35
2023-05-05T21:25:40.760Z,6.38
2023-05-05T21:28:08.279Z,6.50
2023-05-05T21:30:35.817Z,5.70
2023-05-05T21:33:03.391Z,8.70
2023-05-05T21:35:30.986Z,7.82
2023-05-05T21:37:58.498Z,7.72
2023-05-05T21:40:25.995Z,9.10
2023-05-05T21:42:53.511Z,8.10
2023-05-05T21:45:21.225Z,6.35
2023-05-05T21:47:48.741Z,7.90
2023-05-05T21:50:16.227Z,10.10
2023-05-05T21:52:43.714Z,10.52
2023-05-05T21:55:11.353Z,10.15
2023-05-05T21:57:38.855Z,11.90
2023-05-05T22:00:08.534Z,10.32
2023-05-05T22:02:36.489Z,10.48
2023-05-05T22:05:04.107Z,8.52
2023-05-05T22:07:32.944Z,10.52
2023-05-05T22:10:01.475Z,9.85
2023-05-05T22:12:29.065Z,11.18
2023-05-05T22:14:56.635Z,11.23
2023-05-05T22:17:24.247Z,10.73
2023-05-05T22:19:51.815Z,9.80
2023-05-05T22:22:19.348Z,10.50
2023-05-05T22:24:46.878Z,9.80
2023-05-05T22:27:14.427Z,11.57
2023-05-05T22:29:41.947Z,11.18
2023-05-05T22:32:09.473Z,11.93
2023-05-05T22:34:37.044Z,14.05
2023-05-05T22:37:04.775Z,11.85
2023-05-05T22:39:33.167Z,10.45
2023-05-05T22:42:00.933Z,11.73
2023-05-05T22:44:28.432Z,11.55
2023-05-05T22:46:56.074Z,9.75
2023-05-05T22:49:24.263Z,10.57
2023-05-05T22:51:52.130Z,11.82
2023-05-05T22:54:19.825Z,12.60
2023-05-05T22:56:47.621Z,12.25
2023-05-05T22:59:15.124Z,12.18
2023-05-05T23:01:42.908Z,12.45
2023-05-05T23:04:10.479Z,12.73
2023-05-05T23:06:39.618Z,12.02
2023-05-05T23:09:07.579Z,16.63
2023-05-05T23:11:35.047Z,14.85
2023-05-05T23:14:02.567Z,13.77
2023-05-05T23:16:30.116Z,13.55
2023-05-05T23:18:57.714Z,13.27
2023-05-05T23:21:25.270Z,13.88
2023-05-05T23:23:52.792Z,12.68
2023-05-05T23:26:20.247Z,11.25
2023-05-05T23:28:47.766Z,15.45
2023-05-05T23:31:15.301Z,16.58
2023-05-05T23:33:42.908Z,12.73
2023-05-05T23:36:10.422Z,11.63
2023-05-05T23:38:38.144Z,12.88
2023-05-05T23:41:06.283Z,15.80
2023-05-05T23:43:33.751Z,11.73
2023-05-05T23:46:01.261Z,13.57
2023-05-05T23:48:28.736Z,13.88
2023-05-05T23:50:56.284Z,12.13
2023-05-05T23:53:23.977Z,15.15
2023-05-05T23:55:51.420Z,19.08
2023-05-05T23:58:18.905Z,13.05
